Kongen — LCDE — position and weather

sailwx.info

Track history (hours):
 
Tides and Currents Weather Stations Pressure Air Temp Water Temp Dewpoint Dewpoint Depression Visibility Wind Speed Wind Dir Waves Ship Positions

Kongen

Last reported at 2016-Aug-27 15:12 UTC. Time now 2016-Aug-27 22:15 UTC.
Position N 59°53' E 010°41'.

Length 50 m; draft 3.2 m.

Type: Passenger vessel. MMSI: 258509000.

Date/timePositionNaut miles runAvg speedWind from/ knotsBaromVisibWave heightAir tempDewpointWater temp
2016-Aug-27 15:12N 59°53' E 010°41'0 0.5
2016-Aug-27 14:14N 59°54' E 010°42'0 0.4
2016-Aug-27 13:11N 59°54' E 010°41'0 0.1
2016-Aug-27 12:10N 59°53' E 010°41'0 0.1
2016-Aug-27 11:10N 59°53' E 010°41'0 0.2
2016-Aug-27 10:11N 59°54' E 010°41'0 0.2
2016-Aug-27 09:13N 59°54' E 010°42'0 0.3
2016-Aug-27 08:09N 59°53' E 010°41'0 0.3
2016-Aug-27 07:11N 59°54' E 010°42'0 0.3
2016-Aug-27 06:10N 59°53' E 010°41'0 0.0
2016-Aug-26 17:10N 59°54' E 010°41'0 0.0
2016-Aug-26 16:11N 59°54' E 010°41'0 0.0
2016-Aug-26 15:10N 59°54' E 010°41'0 0.0
2016-Aug-26 14:11N 59°54' E 010°41'0 0.0
2016-Aug-26 13:11N 59°54' E 010°41'0 0.0
2016-Aug-26 12:11N 59°54' E 010°41'0 0.5
2016-Aug-26 11:13N 59°54' E 010°42'0 0.1
2016-Aug-26 07:11N 59°54' E 010°41'0 0.0
2016-Aug-26 04:11N 59°54' E 010°41'2 2.5
2016-Aug-26 03:34N 59°52' E 010°39'0 0.0
2016-Aug-26 02:33N 59°52' E 010°39'0 0.0
2016-Aug-26 01:34N 59°52' E 010°39'0 0.0
2016-Aug-26 00:34N 59°52' E 010°39'0 0.0
2016-Aug-25 23:34N 59°52' E 010°39'0 0.0
2016-Aug-25 22:34N 59°52' E 010°39'0 0.0
2016-Aug-25 21:34N 59°52' E 010°39'0 0.0
2016-Aug-25 20:34N 59°52' E 010°39'0 0.0
2016-Aug-25 19:33N 59°52' E 010°39'0 0.0
2016-Aug-25 18:34N 59°52' E 010°39'0 0.0
2016-Aug-25 17:34N 59°52' E 010°39'0 0.0
2016-Aug-25 16:34N 59°52' E 010°39'0 0.2
2016-Aug-25 15:34N 59°52' E 010°40'0 0.2
2016-Aug-25 14:34N 59°53' E 010°40'0 0.3
2016-Aug-25 13:34N 59°52' E 010°40'1 0.4
2016-Aug-25 10:10N 59°54' E 010°41'0 0.1
2016-Aug-25 09:10N 59°54' E 010°41'0 0.0
2016-Aug-25 08:10N 59°54' E 010°41'0 0.0
2016-Aug-25 06:30N 59°54' E 010°41'0 0.0
2016-Aug-24 17:10N 59°54' E 010°41'1 2.2
2016-Aug-24 16:33N 59°53' E 010°39'1 0.9
2016-Aug-24 15:10N 59°53' E 010°41'0 0.1
2016-Aug-24 14:11N 59°54' E 010°41'0 0.1
2016-Aug-24 13:10N 59°54' E 010°41'1 0.7
2016-Aug-24 12:06N 59°53' E 010°40'1 0.2
2016-Aug-24 07:11N 59°54' E 010°41'0 0.1
2016-Aug-24 06:10N 59°54' E 010°41'0 0.0
2016-Aug-24 04:11N 59°54' E 010°41'2 2.4
2016-Aug-24 03:33N 59°52' E 010°39'0 0.0
2016-Aug-24 02:33N 59°52' E 010°39'0 0.0
2016-Aug-24 01:33N 59°52' E 010°39'0 0.0
2016-Aug-24 00:33N 59°52' E 010°39'0 0.0
2016-Aug-23 23:33N 59°52' E 010°39'0 0.0
2016-Aug-23 22:33N 59°52' E 010°39'0 0.0
2016-Aug-23 21:33N 59°52' E 010°39'0 0.0
2016-Aug-23 20:33N 59°52' E 010°39'0 0.0
2016-Aug-23 19:33N 59°52' E 010°39'0 0.0
2016-Aug-23 18:33N 59°52' E 010°39'0 0.0
2016-Aug-23 17:33N 59°52' E 010°39'0 0.0
2016-Aug-23 16:33N 59°52' E 010°39'0 0.1
2016-Aug-23 15:33N 59°52' E 010°40'0 0.1
2016-Aug-23 14:33N 59°52' E 010°40'0 0.1
2016-Aug-23 13:34N 59°52' E 010°40'1 0.4
2016-Aug-23 10:11N 59°54' E 010°41'0 0.2
2016-Aug-23 09:09N 59°53' E 010°41'0 0.2
2016-Aug-23 08:11N 59°54' E 010°41'0 0.0
2016-Aug-23 06:30N 59°54' E 010°41'0 0.2
2016-Aug-23 05:32N 59°54' E 010°41'0 0.0
2016-Aug-22 17:11N 59°54' E 010°41'0 0.0
2016-Aug-22 16:11N 59°54' E 010°41'0 0.0
2016-Aug-22 15:11N 59°54' E 010°41'0 0.3
2016-Aug-22 14:12N 59°54' E 010°42'0 0.3
2016-Aug-22 13:10N 59°54' E 010°41'0 0.2
2016-Aug-22 12:09N 59°53' E 010°41'0 0.2
2016-Aug-22 11:11N 59°54' E 010°41'0 0.0
2016-Aug-22 07:11N 59°53' E 010°41'1 0.7
2016-Aug-22 06:06N 59°53' E 010°40'1 0.5
2016-Aug-22 04:12N 59°54' E 010°42'2 2.7
2016-Aug-22 03:33N 59°52' E 010°39'0 0.0
2016-Aug-22 02:31N 59°52' E 010°39'0 0.0
2016-Aug-22 01:31N 59°52' E 010°39'0 0.0
2016-Aug-22 00:31N 59°52' E 010°39'0 0.0
2016-Aug-21 23:31N 59°52' E 010°39'2 1.3
2016-Aug-21 22:11N 59°54' E 010°42'0 0.0
2016-Aug-21 21:12N 59°54' E 010°42'0 0.2
2016-Aug-21 20:10N 59°54' E 010°41'0 0.2
2016-Aug-21 19:12N 59°54' E 010°41'1 0.5
2016-Aug-21 18:08N 59°53' E 010°41'0 0.2
2016-Aug-21 17:09N 59°53' E 010°41'0 0.3
2016-Aug-21 16:11N 59°54' E 010°41'1 0.7
2016-Aug-21 15:06N 59°53' E 010°40'1 0.1
2016-Aug-21 02:10N 59°54' E 010°41'0 0.1
2016-Aug-21 01:11N 59°54' E 010°41'0 0.1
2016-Aug-21 00:10N 59°54' E 010°41'0 0.1
2016-Aug-20 23:11N 59°54' E 010°41'0 0.2
2016-Aug-20 22:09N 59°53' E 010°41'0 0.3
2016-Aug-20 21:10N 59°53' E 010°41'0 0.1
2016-Aug-20 20:11N 59°54' E 010°41'0 0.0
2016-Aug-20 19:10N 59°54' E 010°41'0 0.1
2016-Aug-20 18:11N 59°54' E 010°41'0 0.1
2016-Aug-20 17:11N 59°54' E 010°41'0 0.1
2016-Aug-20 16:11N 59°54' E 010°41'0 0.0
2016-Aug-20 02:10N 59°54' E 010°41'0 0.0
2016-Aug-20 01:11N 59°54' E 010°41'0 0.0
2016-Aug-20 00:11N 59°54' E 010°41'0 0.1
2016-Aug-19 23:11N 59°54' E 010°42'1 0.2
2016-Aug-19 17:33N 59°53' E 010°40'0 0.2
2016-Aug-19 16:34N 59°53' E 010°40'0 0.0
2016-Aug-19 15:33N 59°53' E 010°40'1 1.2
2016-Aug-19 14:31N 59°54' E 010°41'2 0.2
2016-Aug-19 06:33N 59°52' E 010°40'0 0.0
2016-Aug-19 05:33N 59°52' E 010°40'0 0.3
2016-Aug-19 04:33N 59°53' E 010°40'0 0.0
2016-Aug-19 03:33N 59°53' E 010°40'0 0.4
2016-Aug-19 02:32N 59°52' E 010°39'0 0.0
2016-Aug-19 01:32N 59°52' E 010°39'0 0.0
2016-Aug-19 00:32N 59°52' E 010°39'0 0.0
2016-Aug-18 23:32N 59°52' E 010°39'0 0.0
2016-Aug-18 22:32N 59°52' E 010°39'0 0.0
2016-Aug-18 21:32N 59°52' E 010°39'0 0.0
2016-Aug-18 20:32N 59°52' E 010°39'0 0.0
2016-Aug-18 19:32N 59°52' E 010°39'0 0.0
2016-Aug-18 18:32N 59°52' E 010°39'0 0.0
2016-Aug-18 17:29N 59°52' E 010°39'0 0.5
2016-Aug-18 16:34N 59°53' E 010°40'0 0.0
2016-Aug-18 15:34N 59°53' E 010°40'1 1.1
2016-Aug-18 14:31N 59°54' E 010°41'1 0.2
2016-Aug-18 06:33N 59°52' E 010°40'0 0.0
2016-Aug-18 05:33N 59°52' E 010°40'0 0.4
2016-Aug-18 04:34N 59°53' E 010°40'0 0.0
2016-Aug-18 03:33N 59°53' E 010°40'0 0.4
2016-Aug-18 02:31N 59°52' E 010°39'0 0.0
2016-Aug-18 01:31N 59°52' E 010°39'0 0.0
2016-Aug-18 00:31N 59°52' E 010°39'0 0.0
2016-Aug-17 23:31N 59°52' E 010°39'0 0.0
2016-Aug-17 22:31N 59°52' E 010°39'0 0.0
2016-Aug-17 21:31N 59°52' E 010°39'0 0.0
2016-Aug-17 20:31N 59°52' E 010°39'0 0.0
2016-Aug-17 19:31N 59°52' E 010°39'0 0.0
2016-Aug-17 18:31N 59°52' E 010°39'0 0.0
2016-Aug-17 17:28N 59°52' E 010°39'0 0.4
2016-Aug-17 16:33N 59°53' E 010°40'0 0.1
2016-Aug-17 15:33N 59°53' E 010°40'  
Track history (hours):
 
Tides and Currents Weather Stations Pressure Air Temp Water Temp Dewpoint Dewpoint Depression Visibility Wind Speed Wind Dir Waves Ship Positions

Kongen

Last reported at 2016-Aug-27 15:12 UTC. Time now 2016-Aug-27 22:15 UTC.
Position N 59°53' E 010°41'.

Length 50 m; draft 3.2 m.

Type: Passenger vessel. MMSI: 258509000.

Date/timePositionNaut miles runAvg speedWind from/ knotsBaromVisibWave heightAir tempDewpointWater temp
2016-Aug-27 15:12N 59°53' E 010°41'0 0.5
2016-Aug-27 14:14N 59°54' E 010°42'0 0.4
2016-Aug-27 13:11N 59°54' E 010°41'0 0.1
2016-Aug-27 12:10N 59°53' E 010°41'0 0.1
2016-Aug-27 11:10N 59°53' E 010°41'0 0.2
2016-Aug-27 10:11N 59°54' E 010°41'0 0.2
2016-Aug-27 09:13N 59°54' E 010°42'0 0.3
2016-Aug-27 08:09N 59°53' E 010°41'0 0.3
2016-Aug-27 07:11N 59°54' E 010°42'0 0.3
2016-Aug-27 06:10N 59°53' E 010°41'0 0.0
2016-Aug-26 17:10N 59°54' E 010°41'0 0.0
2016-Aug-26 16:11N 59°54' E 010°41'0 0.0
2016-Aug-26 15:10N 59°54' E 010°41'0 0.0
2016-Aug-26 14:11N 59°54' E 010°41'0 0.0
2016-Aug-26 13:11N 59°54' E 010°41'0 0.0
2016-Aug-26 12:11N 59°54' E 010°41'0 0.5
2016-Aug-26 11:13N 59°54' E 010°42'0 0.1
2016-Aug-26 07:11N 59°54' E 010°41'0 0.0
2016-Aug-26 04:11N 59°54' E 010°41'2 2.5
2016-Aug-26 03:34N 59°52' E 010°39'0 0.0
2016-Aug-26 02:33N 59°52' E 010°39'0 0.0
2016-Aug-26 01:34N 59°52' E 010°39'0 0.0
2016-Aug-26 00:34N 59°52' E 010°39'0 0.0
2016-Aug-25 23:34N 59°52' E 010°39'0 0.0
2016-Aug-25 22:34N 59°52' E 010°39'0 0.0
2016-Aug-25 21:34N 59°52' E 010°39'0 0.0
2016-Aug-25 20:34N 59°52' E 010°39'0 0.0
2016-Aug-25 19:33N 59°52' E 010°39'0 0.0
2016-Aug-25 18:34N 59°52' E 010°39'0 0.0
2016-Aug-25 17:34N 59°52' E 010°39'0 0.0
2016-Aug-25 16:34N 59°52' E 010°39'0 0.2
2016-Aug-25 15:34N 59°52' E 010°40'0 0.2
2016-Aug-25 14:34N 59°53' E 010°40'0 0.3
2016-Aug-25 13:34N 59°52' E 010°40'1 0.4
2016-Aug-25 10:10N 59°54' E 010°41'0 0.1
2016-Aug-25 09:10N 59°54' E 010°41'0 0.0
2016-Aug-25 08:10N 59°54' E 010°41'0 0.0
2016-Aug-25 06:30N 59°54' E 010°41'0 0.0
2016-Aug-24 17:10N 59°54' E 010°41'1 2.2
2016-Aug-24 16:33N 59°53' E 010°39'1 0.9
2016-Aug-24 15:10N 59°53' E 010°41'0 0.1
2016-Aug-24 14:11N 59°54' E 010°41'0 0.1
2016-Aug-24 13:10N 59°54' E 010°41'1 0.7
2016-Aug-24 12:06N 59°53' E 010°40'1 0.2
2016-Aug-24 07:11N 59°54' E 010°41'0 0.1
2016-Aug-24 06:10N 59°54' E 010°41'0 0.0
2016-Aug-24 04:11N 59°54' E 010°41'2 2.4
2016-Aug-24 03:33N 59°52' E 010°39'0 0.0
2016-Aug-24 02:33N 59°52' E 010°39'0 0.0
2016-Aug-24 01:33N 59°52' E 010°39'0 0.0
2016-Aug-24 00:33N 59°52' E 010°39'0 0.0
2016-Aug-23 23:33N 59°52' E 010°39'0 0.0
2016-Aug-23 22:33N 59°52' E 010°39'0 0.0
2016-Aug-23 21:33N 59°52' E 010°39'0 0.0
2016-Aug-23 20:33N 59°52' E 010°39'0 0.0
2016-Aug-23 19:33N 59°52' E 010°39'0 0.0
2016-Aug-23 18:33N 59°52' E 010°39'0 0.0
2016-Aug-23 17:33N 59°52' E 010°39'0 0.0
2016-Aug-23 16:33N 59°52' E 010°39'0 0.1
2016-Aug-23 15:33N 59°52' E 010°40'0 0.1
2016-Aug-23 14:33N 59°52' E 010°40'0 0.1
2016-Aug-23 13:34N 59°52' E 010°40'1 0.4
2016-Aug-23 10:11N 59°54' E 010°41'0 0.2
2016-Aug-23 09:09N 59°53' E 010°41'0 0.2
2016-Aug-23 08:11N 59°54' E 010°41'0 0.0
2016-Aug-23 06:30N 59°54' E 010°41'0 0.2
2016-Aug-23 05:32N 59°54' E 010°41'0 0.0
2016-Aug-22 17:11N 59°54' E 010°41'0 0.0
2016-Aug-22 16:11N 59°54' E 010°41'0 0.0
2016-Aug-22 15:11N 59°54' E 010°41'0 0.3
2016-Aug-22 14:12N 59°54' E 010°42'0 0.3
2016-Aug-22 13:10N 59°54' E 010°41'0 0.2
2016-Aug-22 12:09N 59°53' E 010°41'0 0.2
2016-Aug-22 11:11N 59°54' E 010°41'0 0.0
2016-Aug-22 07:11N 59°53' E 010°41'1 0.7
2016-Aug-22 06:06N 59°53' E 010°40'1 0.5
2016-Aug-22 04:12N 59°54' E 010°42'2 2.7
2016-Aug-22 03:33N 59°52' E 010°39'0 0.0
2016-Aug-22 02:31N 59°52' E 010°39'0 0.0
2016-Aug-22 01:31N 59°52' E 010°39'0 0.0
2016-Aug-22 00:31N 59°52' E 010°39'0 0.0
2016-Aug-21 23:31N 59°52' E 010°39'2 1.3
2016-Aug-21 22:11N 59°54' E 010°42'0 0.0
2016-Aug-21 21:12N 59°54' E 010°42'0 0.2
2016-Aug-21 20:10N 59°54' E 010°41'0 0.2
2016-Aug-21 19:12N 59°54' E 010°41'1 0.5
2016-Aug-21 18:08N 59°53' E 010°41'0 0.2
2016-Aug-21 17:09N 59°53' E 010°41'0 0.3
2016-Aug-21 16:11N 59°54' E 010°41'1 0.7
2016-Aug-21 15:06N 59°53' E 010°40'1 0.1
2016-Aug-21 02:10N 59°54' E 010°41'0 0.1
2016-Aug-21 01:11N 59°54' E 010°41'0 0.1
2016-Aug-21 00:10N 59°54' E 010°41'0 0.1
2016-Aug-20 23:11N 59°54' E 010°41'0 0.2
2016-Aug-20 22:09N 59°53' E 010°41'0 0.3
2016-Aug-20 21:10N 59°53' E 010°41'0 0.1
2016-Aug-20 20:11N 59°54' E 010°41'0 0.0
2016-Aug-20 19:10N 59°54' E 010°41'0 0.1
2016-Aug-20 18:11N 59°54' E 010°41'0 0.1
2016-Aug-20 17:11N 59°54' E 010°41'0 0.1
2016-Aug-20 16:11N 59°54' E 010°41'0 0.0
2016-Aug-20 02:10N 59°54' E 010°41'0 0.0
2016-Aug-20 01:11N 59°54' E 010°41'0 0.0
2016-Aug-20 00:11N 59°54' E 010°41'0 0.1
2016-Aug-19 23:11N 59°54' E 010°42'1 0.2
2016-Aug-19 17:33N 59°53' E 010°40'0 0.2
2016-Aug-19 16:34N 59°53' E 010°40'0 0.0
2016-Aug-19 15:33N 59°53' E 010°40'1 1.2
2016-Aug-19 14:31N 59°54' E 010°41'2 0.2
2016-Aug-19 06:33N 59°52' E 010°40'0 0.0
2016-Aug-19 05:33N 59°52' E 010°40'0 0.3
2016-Aug-19 04:33N 59°53' E 010°40'0 0.0
2016-Aug-19 03:33N 59°53' E 010°40'0 0.4
2016-Aug-19 02:32N 59°52' E 010°39'0 0.0
2016-Aug-19 01:32N 59°52' E 010°39'0 0.0
2016-Aug-19 00:32N 59°52' E 010°39'0 0.0
2016-Aug-18 23:32N 59°52' E 010°39'0 0.0
2016-Aug-18 22:32N 59°52' E 010°39'0 0.0
2016-Aug-18 21:32N 59°52' E 010°39'0 0.0
2016-Aug-18 20:32N 59°52' E 010°39'0 0.0
2016-Aug-18 19:32N 59°52' E 010°39'0 0.0
2016-Aug-18 18:32N 59°52' E 010°39'0 0.0
2016-Aug-18 17:29N 59°52' E 010°39'0 0.5
2016-Aug-18 16:34N 59°53' E 010°40'0 0.0
2016-Aug-18 15:34N 59°53' E 010°40'1 1.1
2016-Aug-18 14:31N 59°54' E 010°41'1 0.2
2016-Aug-18 06:33N 59°52' E 010°40'0 0.0
2016-Aug-18 05:33N 59°52' E 010°40'0 0.4
2016-Aug-18 04:34N 59°53' E 010°40'0 0.0
2016-Aug-18 03:33N 59°53' E 010°40'0 0.4
2016-Aug-18 02:31N 59°52' E 010°39'0 0.0
2016-Aug-18 01:31N 59°52' E 010°39'0 0.0
2016-Aug-18 00:31N 59°52' E 010°39'0 0.0
2016-Aug-17 23:31N 59°52' E 010°39'0 0.0
2016-Aug-17 22:31N 59°52' E 010°39'0 0.0
2016-Aug-17 21:31N 59°52' E 010°39'0 0.0
2016-Aug-17 20:31N 59°52' E 010°39'0 0.0
2016-Aug-17 19:31N 59°52' E 010°39'0 0.0
2016-Aug-17 18:31N 59°52' E 010°39'0 0.0
2016-Aug-17 17:28N 59°52' E 010°39'0 0.4
2016-Aug-17 16:33N 59°53' E 010°40'0 0.1
2016-Aug-17 15:33N 59°53' E 010°40'  

Dump ship's entire track history